sensor_id;sensor_type;location;lat;lon;timestamp;pressure;altitude;pressure_sealevel;temperature;humidity
54439;BME280;40347;53.848;27.498;2023-06-14T00:01:42;1015.4;;;16.2;43
54439;BME280;40347;53.848;27.498;2023-06-14T00:07:02;1015.4;;;16.1;43.2
54439;BME280;40347;53.848;27.498;2023-06-14T00:11:38;1015.4;;;16.1;43.1
54439;BME280;40347;53.848;27.498;2023-06-14T00:16:39;1015.4;;;16.2;43
54439;BME280;40347;53.848;27.498;2023-06-14T00:21:38;1015.4;;;16.3;42.7
54439;BME280;40347;53.848;27.498;2023-06-14T00:27:10;1015.3;;;16.3;42.7
54439;BME280;40347;53.848;27.498;2023-06-14T00:31:46;1015.3;;;16.3;42.8
54439;BME280;40347;53.848;27.498;2023-06-14T00:36:38;1015.3;;;16.4;42.7
54439;BME280;40347;53.848;27.498;2023-06-14T00:41:39;1015.3;;;16.5;42.7
54439;BME280;40347;53.848;27.498;2023-06-14T00:46:54;1015.2;;;16.5;42.7
54439;BME280;40347;53.848;27.498;2023-06-14T00:52:10;1015.1;;;16.3;42.8
54439;BME280;40347;53.848;27.498;2023-06-14T00:57:02;1015.1;;;16.2;43
54439;BME280;40347;53.848;27.498;2023-06-14T01:02:06;1015.1;;;16.2;43
54439;BME280;40347;53.848;27.498;2023-06-14T01:06:54;1015.1;;;16.3;43
54439;BME280;40347;53.848;27.498;2023-06-14T01:11:40;1015.1;;;16.4;42.9
54439;BME280;40347;53.848;27.498;2023-06-14T01:16:46;1015.1;;;16.4;43
54439;BME280;40347;53.848;27.498;2023-06-14T01:22:04;1015.1;;;16.4;43.1
54439;BME280;40347;53.848;27.498;2023-06-14T01:26:46;1015.1;;;16.4;43
54439;BME280;40347;53.848;27.498;2023-06-14T01:32:02;1015.1;;;16.5;43.1
54439;BME280;40347;53.848;27.498;2023-06-14T01:36:56;1015.1;;;16.5;43.2
54439;BME280;40347;53.848;27.498;2023-06-14T01:41:38;1015.2;;;16.6;43
54439;BME280;40347;53.848;27.498;2023-06-14T01:47:10;1015.2;;;16.6;43
54439;BME280;40347;53.848;27.498;2023-06-14T01:51:44;1015.2;;;16.5;43.2
54439;BME280;40347;53.848;27.498;2023-06-14T01:57:11;1015.2;;;16.6;43.3
54439;BME280;40347;53.848;27.498;2023-06-14T02:01:42;1015.2;;;16.5;43.5
54439;BME280;40347;53.848;27.498;2023-06-14T02:07:04;1015.2;;;16.5;43.3
54439;BME280;40347;53.848;27.498;2023-06-14T02:11:54;1015.3;;;16.6;43.2
54439;BME280;40347;53.848;27.498;2023-06-14T02:17:02;1015.3;;;16.6;43.2
54439;BME280;40347;53.848;27.498;2023-06-14T02:21:38;1015.3;;;16.5;43.2
54439;BME280;40347;53.848;27.498;2023-06-14T02:26:38;1015.3;;;16.6;43.1
54439;BME280;40347;53.848;27.498;2023-06-14T02:31:46;1015.3;;;16.7;42.9
54439;BME280;40347;53.848;27.498;2023-06-14T02:36:38;1015.3;;;16.8;43
54439;BME280;40347;53.848;27.498;2023-06-14T02:41:38;1015.3;;;16.9;42.8
54439;BME280;40347;53.848;27.498;2023-06-14T02:46:54;1015.3;;;16.9;42.9
54439;BME280;40347;53.848;27.498;2023-06-14T02:52:03;1015.3;;;17;42.9
54439;BME280;40347;53.848;27.498;2023-06-14T02:56:38;1015.3;;;17.1;42.9
54439;BME280;40347;53.848;27.498;2023-06-14T03:01:44;1015.3;;;17.1;42.7
54439;BME280;40347;53.848;27.498;2023-06-14T03:06:38;1015.2;;;17.2;42.6
54439;BME280;40347;53.848;27.498;2023-06-14T03:11:46;1015.3;;;17.2;42.7
54439;BME280;40347;53.848;27.498;2023-06-14T03:17:00;1015.3;;;17.2;42.9
54439;BME280;40347;53.848;27.498;2023-06-14T03:22:10;1015.3;;;17.3;43
54439;BME280;40347;53.848;27.498;2023-06-14T03:26:46;1015.3;;;17.4;42.8
54439;BME280;40347;53.848;27.498;2023-06-14T03:32:01;1015.3;;;17.5;42.7
54439;BME280;40347;53.848;27.498;2023-06-14T03:37:18;1015.3;;;17.6;42.9
54439;BME280;40347;53.848;27.498;2023-06-14T03:41:38;1015.3;;;17.7;42.8
54439;BME280;40347;53.848;27.498;2023-06-14T03:46:38;1015.4;;;17.7;43
54439;BME280;40347;53.848;27.498;2023-06-14T03:51:46;1015.3;;;17.6;43.1
54439;BME280;40347;53.848;27.498;2023-06-14T03:57:02;1015.4;;;17.7;43
54439;BME280;40347;53.848;27.498;2023-06-14T04:01:42;1015.4;;;17.6;43.3
54439;BME280;40347;53.848;27.498;2023-06-14T04:07:04;1015.4;;;17.7;43.2
54439;BME280;40347;53.848;27.498;2023-06-14T04:11:54;1015.4;;;17.7;43.5
54439;BME280;40347;53.848;27.498;2023-06-14T04:16:38;1015.4;;;17.6;43.7
54439;BME280;40347;53.848;27.498;2023-06-14T04:21:38;1015.4;;;17.5;43.8
54439;BME280;40347;53.848;27.498;2023-06-14T04:26:46;1015.4;;;17.6;43.7
54439;BME280;40347;53.848;27.498;2023-06-14T04:31:38;1015.4;;;17.7;43.6
54439;BME280;40347;53.848;27.498;2023-06-14T04:36:46;1015.4;;;17.9;43.4
54439;BME280;40347;53.848;27.498;2023-06-14T04:41:46;1015.4;;;18;43.2
54439;BME280;40347;53.848;27.498;2023-06-14T04:46:38;1015.4;;;18.1;43
54439;BME280;40347;53.848;27.498;2023-06-14T04:51:56;1015.4;;;18.1;42.9
54439;BME280;40347;53.848;27.498;2023-06-14T04:57:02;1015.4;;;18;42.8
54439;BME280;40347;53.848;27.498;2023-06-14T05:01:42;1015.5;;;18;43
54439;BME280;40347;53.848;27.498;2023-06-14T05:06:40;1015.5;;;17.9;43.1
54439;BME280;40347;53.848;27.498;2023-06-14T05:11:38;1015.5;;;17.9;43.3
54439;BME280;40347;53.848;27.498;2023-06-14T05:16:52;1015.4;;;17.9;43.3
54439;BME280;40347;53.848;27.498;2023-06-14T05:21:44;1015.4;;;17.9;43.5
54439;BME280;40347;53.848;27.498;2023-06-14T05:26:54;1015.4;;;18;43.3
54439;BME280;40347;53.848;27.498;2023-06-14T05:31:54;1015.3;;;18.3;42.9
54439;BME280;40347;53.848;27.498;2023-06-14T05:36:52;1015.3;;;18.6;42.5
54439;BME280;40347;53.848;27.498;2023-06-14T05:41:42;1015.3;;;18.7;42.3
54439;BME280;40347;53.848;27.498;2023-06-14T05:46:54;1015.3;;;18.9;42.1
54439;BME280;40347;53.848;27.498;2023-06-14T05:52:02;1015.3;;;19.1;41.7
54439;BME280;40347;53.848;27.498;2023-06-14T05:56:38;1015.3;;;19.3;41.4
54439;BME280;40347;53.848;27.498;2023-06-14T06:01:38;1015.3;;;19.4;41.4
54439;BME280;40347;53.848;27.498;2023-06-14T06:06:38;1015.3;;;19.4;41.4
54439;BME280;40347;53.848;27.498;2023-06-14T06:12:02;1015.3;;;19.5;41.3
54439;BME280;40347;53.848;27.498;2023-06-14T06:17:00;1015.3;;;19.6;41.3
54439;BME280;40347;53.848;27.498;2023-06-14T06:22:02;1015.3;;;19.7;41.3
54439;BME280;40347;53.848;27.498;2023-06-14T06:26:48;1015.3;;;19.8;41.1
54439;BME280;40347;53.848;27.498;2023-06-14T06:31:54;1015.4;;;19.8;40.8
54439;BME280;40347;53.848;27.498;2023-06-14T06:37:02;1015.3;;;19.8;41
54439;BME280;40347;53.848;27.498;2023-06-14T06:41:46;1015.3;;;19.9;41.1
54439;BME280;40347;53.848;27.498;2023-06-14T06:46:46;1015.3;;;20;41
54439;BME280;40347;53.848;27.498;2023-06-14T06:52:03;1015.3;;;20;41
54439;BME280;40347;53.848;27.498;2023-06-14T06:56:52;1015.3;;;20.1;40.9
54439;BME280;40347;53.848;27.498;2023-06-14T07:01:46;1015.3;;;20;40.8
54439;BME280;40347;53.848;27.498;2023-06-14T07:06:46;1015.3;;;20.1;40.8
54439;BME280;40347;53.848;27.498;2023-06-14T07:11:38;1015.3;;;20.3;40.5
54439;BME280;40347;53.848;27.498;2023-06-14T07:17:02;1015.3;;;20.8;40
54439;BME280;40347;53.848;27.498;2023-06-14T07:21:54;1015.4;;;21.1;39.6
54439;BME280;40347;53.848;27.498;2023-06-14T07:26:38;1015.3;;;21.4;39
54439;BME280;40347;53.848;27.498;2023-06-14T07:31:52;1015.3;;;21.6;38.7
54439;BME280;40347;53.848;27.498;2023-06-14T07:37:14;1015.2;;;21.7;38.6
54439;BME280;40347;53.848;27.498;2023-06-14T07:41:38;1015.2;;;21.6;38.7
54439;BME280;40347;53.848;27.498;2023-06-14T07:46:38;1015.2;;;21.9;38.8
54439;BME280;40347;53.848;27.498;2023-06-14T07:51:38;1015.2;;;22.2;38.4
54439;BME280;40347;53.848;27.498;2023-06-14T07:56:38;1015.3;;;22.2;37.5
54439;BME280;40347;53.848;27.498;2023-06-14T08:01:46;1015.3;;;22.4;37.7
54439;BME280;40347;53.848;27.498;2023-06-14T08:06:54;1015.3;;;22.6;37.3
54439;BME280;40347;53.848;27.498;2023-06-14T08:11:38;1015.3;;;23;36.9
54439;BME280;40347;53.848;27.498;2023-06-14T08:17:26;1015.3;;;23.4;36.4
54439;BME280;40347;53.848;27.498;2023-06-14T08:22:08;1015.3;;;23.8;36.1
54439;BME280;40347;53.848;27.498;2023-06-14T08:27:08;1015.3;;;24.3;36
54439;BME280;40347;53.848;27.498;2023-06-14T08:31:38;1015.3;;;24.8;35.6
54439;BME280;40347;53.848;27.498;2023-06-14T08:36:58;1015.4;;;25.2;35
54439;BME280;40347;53.848;27.498;2023-06-14T08:42:01;1015.3;;;25.2;34.9
54439;BME280;40347;53.848;27.498;2023-06-14T08:47:12;1015.2;;;25.3;34.6
54439;BME280;40347;53.848;27.498;2023-06-14T08:52:07;1015.1;;;25.2;34.7
54439;BME280;40347;53.848;27.498;2023-06-14T08:56:42;1015.1;;;24.9;35.3
54439;BME280;40347;53.848;27.498;2023-06-14T09:01:48;1015.1;;;24.9;35.8
54439;BME280;40347;53.848;27.498;2023-06-14T09:06:44;1015.1;;;24.7;36.3
54439;BME280;40347;53.848;27.498;2023-06-14T09:12:09;1015.1;;;24.8;36.6
54439;BME280;40347;53.848;27.498;2023-06-14T09:17:12;1015.1;;;24.7;37.1
54439;BME280;40347;53.848;27.498;2023-06-14T09:21:42;1015;;;24.7;37.5
54439;BME280;40347;53.848;27.498;2023-06-14T09:27:08;1015;;;25;37.4
54439;BME280;40347;53.848;27.498;2023-06-14T09:31:38;1015;;;25.2;37.3
54439;BME280;40347;53.848;27.498;2023-06-14T09:36:42;1015;;;25.5;37.1
54439;BME280;40347;53.848;27.498;2023-06-14T09:41:39;1015;;;25.6;37.4
54439;BME280;40347;53.848;27.498;2023-06-14T09:46:38;1015;;;25.8;37
54439;BME280;40347;53.848;27.498;2023-06-14T09:51:42;1014.9;;;25.8;37.2
54439;BME280;40347;53.848;27.498;2023-06-14T09:56:54;1014.9;;;25.7;37.4
54439;BME280;40347;53.848;27.498;2023-06-14T10:01:52;1014.9;;;25.7;37.5
54439;BME280;40347;53.848;27.498;2023-06-14T10:07:06;1014.9;;;25.7;37.6
54439;BME280;40347;53.848;27.498;2023-06-14T10:11:52;1014.8;;;26;37.5
54439;BME280;40347;53.848;27.498;2023-06-14T10:16:45;1014.9;;;26.4;37
54439;BME280;40347;53.848;27.498;2023-06-14T10:22:04;1014.8;;;26.4;36.8
54439;BME280;40347;53.848;27.498;2023-06-14T10:27:14;1014.8;;;26;37.1
54439;BME280;40347;53.848;27.498;2023-06-14T10:32:08;1014.8;;;25.9;37.3
54439;BME280;40347;53.848;27.498;2023-06-14T10:36:41;1014.8;;;25.9;37.3
54439;BME280;40347;53.848;27.498;2023-06-14T10:41:39;1014.8;;;25.7;37.5
54439;BME280;40347;53.848;27.498;2023-06-14T10:46:52;1014.8;;;25.9;37.1
54439;BME280;40347;53.848;27.498;2023-06-14T10:51:55;1014.8;;;26.3;36.9
54439;BME280;40347;53.848;27.498;2023-06-14T10:56:58;1014.8;;;26.8;36.7
54439;BME280;40347;53.848;27.498;2023-06-14T11:01:51;1014.7;;;27.5;36
54439;BME280;40347;53.848;27.498;2023-06-14T11:07:08;1014.7;;;27.8;35.5
54439;BME280;40347;53.848;27.498;2023-06-14T11:11:50;1014.6;;;27.8;35
54439;BME280;40347;53.848;27.498;2023-06-14T11:17:14;1014.6;;;27.7;35
54439;BME280;40347;53.848;27.498;2023-06-14T11:22:02;1014.5;;;27.6;35.3
54439;BME280;40347;53.848;27.498;2023-06-14T11:26:55;1014.5;;;27.8;35.1
54439;BME280;40347;53.848;27.498;2023-06-14T11:32:08;1014.5;;;28;34.6
54439;BME280;40347;53.848;27.498;2023-06-14T11:36:54;1014.5;;;27.8;34.9
54439;BME280;40347;53.848;27.498;2023-06-14T11:42:04;1014.4;;;27.3;35.2
54439;BME280;40347;53.848;27.498;2023-06-14T11:46:54;1014.5;;;26.7;36.1
54439;BME280;40347;53.848;27.498;2023-06-14T11:52:08;1014.5;;;26.3;36.7
54439;BME280;40347;53.848;27.498;2023-06-14T11:56:44;1014.5;;;26.1;37.2
54439;BME280;40347;53.848;27.498;2023-06-14T12:02:13;1014.5;;;25.9;37.3
54439;BME280;40347;53.848;27.498;2023-06-14T12:06:39;1014.5;;;25.9;37.4
54439;BME280;40347;53.848;27.498;2023-06-14T12:11:39;1014.5;;;26;37.3
54439;BME280;40347;53.848;27.498;2023-06-14T12:16:39;1014.5;;;26.1;37.1
54439;BME280;40347;53.848;27.498;2023-06-14T12:21:38;1014.6;;;26.1;36.9
54439;BME280;40347;53.848;27.498;2023-06-14T12:27:08;1014.6;;;26;37
54439;BME280;40347;53.848;27.498;2023-06-14T12:32:07;1014.5;;;25.8;36.9
54439;BME280;40347;53.848;27.498;2023-06-14T12:36:38;1014.5;;;25.8;37.1
54439;BME280;40347;53.848;27.498;2023-06-14T12:41:38;1014.5;;;26.1;36.9
54439;BME280;40347;53.848;27.498;2023-06-14T12:47:06;1014.4;;;26.6;36.2
54439;BME280;40347;53.848;27.498;2023-06-14T12:51:39;1014.4;;;27;35.9
54439;BME280;40347;53.848;27.498;2023-06-14T12:56:56;1014.4;;;27.1;35.5
54439;BME280;40347;53.848;27.498;2023-06-14T13:02:11;1014.3;;;27.3;35.1
54439;BME280;40347;53.848;27.498;2023-06-14T13:06:39;1014.2;;;27.4;35.1
54439;BME280;40347;53.848;27.498;2023-06-14T13:12:07;1014.2;;;27.4;34.9
54439;BME280;40347;53.848;27.498;2023-06-14T13:16:44;1014.2;;;27;35.5
54439;BME280;40347;53.848;27.498;2023-06-14T13:21:38;1014.2;;;26.8;35.5
54439;BME280;40347;53.848;27.498;2023-06-14T13:26:54;1014.2;;;26.6;36
54439;BME280;40347;53.848;27.498;2023-06-14T13:31:50;1014.2;;;26.6;35.9
54439;BME280;40347;53.848;27.498;2023-06-14T13:36:42;1014.1;;;26.9;35.5
54439;BME280;40347;53.848;27.498;2023-06-14T13:41:38;1014.1;;;27.2;35.3
54439;BME280;40347;53.848;27.498;2023-06-14T13:47:08;1014.1;;;27.2;34.9
54439;BME280;40347;53.848;27.498;2023-06-14T13:51:38;1014.1;;;27;35.2
54439;BME280;40347;53.848;27.498;2023-06-14T13:56:58;1014.1;;;26.9;35.6
54439;BME280;40347;53.848;27.498;2023-06-14T14:02:05;1014.1;;;27;35.5
54439;BME280;40347;53.848;27.498;2023-06-14T14:06:38;1014.1;;;26.7;35.9
54439;BME280;40347;53.848;27.498;2023-06-14T14:11:52;1014.2;;;26.2;36.6
54439;BME280;40347;53.848;27.498;2023-06-14T14:16:38;1014.2;;;25.9;37.1
54439;BME280;40347;53.848;27.498;2023-06-14T14:21:38;1014.2;;;25.8;37.3
54439;BME280;40347;53.848;27.498;2023-06-14T14:27:03;1014.2;;;25.6;37.8
54439;BME280;40347;53.848;27.498;2023-06-14T14:31:38;1014.2;;;25.3;38.3
54439;BME280;40347;53.848;27.498;2023-06-14T14:36:42;1014.2;;;24.9;39.1
54439;BME280;40347;53.848;27.498;2023-06-14T14:42:05;1014.2;;;24.6;39.5
54439;BME280;40347;53.848;27.498;2023-06-14T14:46:52;1014.2;;;24.7;40.1
54439;BME280;40347;53.848;27.498;2023-06-14T14:51:38;1014.3;;;24.9;39.8
54439;BME280;40347;53.848;27.498;2023-06-14T14:56:56;1014.3;;;25.2;39.7
54439;BME280;40347;53.848;27.498;2023-06-14T15:01:48;1014.3;;;25.5;39.2
54439;BME280;40347;53.848;27.498;2023-06-14T15:07:00;1014.3;;;25.4;39.9
54439;BME280;40347;53.848;27.498;2023-06-14T15:12:07;1014.3;;;25.3;40.4
54439;BME280;40347;53.848;27.498;2023-06-14T15:16:42;1014.3;;;25.3;40.5
54439;BME280;40347;53.848;27.498;2023-06-14T15:21:38;1014.3;;;25.4;40.3
54439;BME280;40347;53.848;27.498;2023-06-14T15:27:00;1014.2;;;25.4;40.5
54439;BME280;40347;53.848;27.498;2023-06-14T15:31:54;1014.2;;;25.4;40.7
54439;BME280;40347;53.848;27.498;2023-06-14T15:36:44;1014.2;;;25.3;40.8
54439;BME280;40347;53.848;27.498;2023-06-14T15:41:39;1014.2;;;25.1;40.9
54439;BME280;40347;53.848;27.498;2023-06-14T15:46:52;1014.2;;;24.9;41.3
54439;BME280;40347;53.848;27.498;2023-06-14T15:51:38;1014.1;;;24.7;41.2
54439;BME280;40347;53.848;27.498;2023-06-14T15:56:45;1014.1;;;24.4;41.7
54439;BME280;40347;53.848;27.498;2023-06-14T16:01:48;1014.1;;;24.1;42.4
54439;BME280;40347;53.848;27.498;2023-06-14T16:06:38;1014.1;;;24;42.5
54439;BME280;40347;53.848;27.498;2023-06-14T16:12:23;1014.1;;;23.9;42.8
54439;BME280;40347;53.848;27.498;2023-06-14T16:16:39;1014.1;;;23.7;42.9
54439;BME280;40347;53.848;27.498;2023-06-14T16:21:39;1014.1;;;23.5;43
54439;BME280;40347;53.848;27.498;2023-06-14T16:26:38;1014.1;;;23.2;43.7
54439;BME280;40347;53.848;27.498;2023-06-14T16:31:39;1014.1;;;22.9;44.4
54439;BME280;40347;53.848;27.498;2023-06-14T16:36:43;1014.2;;;22.7;44.6
54439;BME280;40347;53.848;27.498;2023-06-14T16:42:19;1014.2;;;22.6;45
54439;BME280;40347;53.848;27.498;2023-06-14T16:47:08;1014.2;;;22.6;45.4
54439;BME280;40347;53.848;27.498;2023-06-14T16:52:23;1014.3;;;22.6;45
54439;BME280;40347;53.848;27.498;2023-06-14T16:56:39;1014.3;;;22.5;45.4
54439;BME280;40347;53.848;27.498;2023-06-14T17:02:03;1014.3;;;22.5;45.5
54439;BME280;40347;53.848;27.498;2023-06-14T17:07:01;1014.2;;;22.6;45.4
54439;BME280;40347;53.848;27.498;2023-06-14T17:11:53;1014.3;;;22.5;45.8
54439;BME280;40347;53.848;27.498;2023-06-14T17:16:39;1014.3;;;22.5;45.6
54439;BME280;40347;53.848;27.498;2023-06-14T17:21:49;1014.3;;;22.5;45.5
54439;BME280;40347;53.848;27.498;2023-06-14T17:26:55;1014.3;;;22.3;45.9
54439;BME280;40347;53.848;27.498;2023-06-14T17:31:39;1014.3;;;22.2;46.4
54439;BME280;40347;53.848;27.498;2023-06-14T17:36:43;1014.4;;;22;46.6
54439;BME280;40347;53.848;27.498;2023-06-14T17:42:03;1014.4;;;21.9;46.7
54439;BME280;40347;53.848;27.498;2023-06-14T17:46:39;1014.5;;;21.8;47
54439;BME280;40347;53.848;27.498;2023-06-14T17:51:49;1014.5;;;21.8;46.9
54439;BME280;40347;53.848;27.498;2023-06-14T17:56:55;1014.4;;;21.7;47.2
54439;BME280;40347;53.848;27.498;2023-06-14T18:01:39;1014.4;;;21.6;47.4
54439;BME280;40347;53.848;27.498;2023-06-14T18:06:39;1014.4;;;21.6;47.5
54439;BME280;40347;53.848;27.498;2023-06-14T18:11:39;1014.4;;;21.6;47.8
54439;BME280;40347;53.848;27.498;2023-06-14T18:16:39;1014.4;;;21.6;47.6
54439;BME280;40347;53.848;27.498;2023-06-14T18:21:53;1014.4;;;21.6;47.6
54439;BME280;40347;53.848;27.498;2023-06-14T18:26:39;1014.4;;;21.5;48.1
54439;BME280;40347;53.848;27.498;2023-06-14T18:31:59;1014.4;;;21.4;48.5
54439;BME280;40347;53.848;27.498;2023-06-14T18:37:01;1014.5;;;21.4;48.5
54439;BME280;40347;53.848;27.498;2023-06-14T18:41:39;1014.5;;;21.4;48.5
54439;BME280;40347;53.848;27.498;2023-06-14T18:46:39;1014.5;;;21.4;48.7
54439;BME280;40347;53.848;27.498;2023-06-14T18:51:53;1014.5;;;21.4;48.5
54439;BME280;40347;53.848;27.498;2023-06-14T18:56:39;1014.5;;;21.4;48.8
54439;BME280;40347;53.848;27.498;2023-06-14T19:02:03;1014.5;;;21.3;48.9
54439;BME280;40347;53.848;27.498;2023-06-14T19:06:39;1014.5;;;21.4;48.6
54439;BME280;40347;53.848;27.498;2023-06-14T19:11:57;1014.5;;;21.3;49
54439;BME280;40347;53.848;27.498;2023-06-14T19:16:45;1014.5;;;21.3;48.7
54439;BME280;40347;53.848;27.498;2023-06-14T19:21:39;1014.6;;;21.3;48.7
54439;BME280;40347;53.848;27.498;2023-06-14T19:26:39;1014.6;;;21.3;48.3
54439;BME280;40347;53.848;27.498;2023-06-14T19:31:39;1014.6;;;21.3;48.1
54439;BME280;40347;53.848;27.498;2023-06-14T19:37:09;1014.6;;;21.4;47.6
54439;BME280;40347;53.848;27.498;2023-06-14T19:41:39;1014.6;;;21.5;47.4
54439;BME280;40347;53.848;27.498;2023-06-14T19:47:07;1014.6;;;21.5;47.2
54439;BME280;40347;53.848;27.498;2023-06-14T19:51:39;1014.6;;;21.5;46.8
54439;BME280;40347;53.848;27.498;2023-06-14T19:56:39;1014.6;;;21.5;46.7
54439;BME280;40347;53.848;27.498;2023-06-14T20:01:49;1014.6;;;21.5;46.4
54439;BME280;40347;53.848;27.498;2023-06-14T20:06:39;1014.6;;;21.6;46.3
54439;BME280;40347;53.848;27.498;2023-06-14T20:11:39;1014.7;;;21.5;46.4
54439;BME280;40347;53.848;27.498;2023-06-14T20:16:39;1014.7;;;21.6;46.2
54439;BME280;40347;53.848;27.498;2023-06-14T20:21:47;1014.7;;;21.5;46.1
54439;BME280;40347;53.848;27.498;2023-06-14T20:27:07;1014.7;;;21.5;46.1
54439;BME280;40347;53.848;27.498;2023-06-14T20:31:53;1014.7;;;21.5;46.2
54439;BME280;40347;53.848;27.498;2023-06-14T20:36:45;1014.7;;;21.5;46.3
54439;BME280;40347;53.848;27.498;2023-06-14T20:41:39;1014.7;;;21.5;46.4
54439;BME280;40347;53.848;27.498;2023-06-14T20:46:39;1014.7;;;21.5;46.5
54439;BME280;40347;53.848;27.498;2023-06-14T20:51:45;1014.7;;;21.4;46.7
54439;BME280;40347;53.848;27.498;2023-06-14T20:56:39;1014.7;;;21.4;46.8
54439;BME280;40347;53.848;27.498;2023-06-14T21:01:39;1014.7;;;21.4;46.9
54439;BME280;40347;53.848;27.498;2023-06-14T21:06:55;1014.7;;;21.4;47
54439;BME280;40347;53.848;27.498;2023-06-14T21:11:51;1014.7;;;21.3;47.2
54439;BME280;40347;53.848;27.498;2023-06-14T21:16:45;1014.7;;;21.3;47.4
54439;BME280;40347;53.848;27.498;2023-06-14T21:21:39;1014.7;;;21.3;47.5
54439;BME280;40347;53.848;27.498;2023-06-14T21:26:53;1014.7;;;21.2;47.9
54439;BME280;40347;53.848;27.498;2023-06-14T21:31:39;1014.7;;;21.1;48.2
54439;BME280;40347;53.848;27.498;2023-06-14T21:36:39;1014.7;;;21.1;48.1
54439;BME280;40347;53.848;27.498;2023-06-14T21:42:05;1014.7;;;21.1;48.2
54439;BME280;40347;53.848;27.498;2023-06-14T21:46:39;1014.7;;;21.1;48.2
54439;BME280;40347;53.848;27.498;2023-06-14T21:51:39;1014.6;;;21.1;48.3
54439;BME280;40347;53.848;27.498;2023-06-14T21:56:39;1014.6;;;21;48.5
54439;BME280;40347;53.848;27.498;2023-06-14T22:01:49;1014.6;;;21;48.7
54439;BME280;40347;53.848;27.498;2023-06-14T22:06:39;1014.6;;;20.9;48.7
54439;BME280;40347;53.848;27.498;2023-06-14T22:11:59;1014.6;;;20.9;48.8
54439;BME280;40347;53.848;27.498;2023-06-14T22:16:45;1014.6;;;20.8;49
54439;BME280;40347;53.848;27.498;2023-06-14T22:21:39;1014.6;;;20.8;49.3
54439;BME280;40347;53.848;27.498;2023-06-14T22:26:53;1014.6;;;20.7;49.5
54439;BME280;40347;53.848;27.498;2023-06-14T22:31:39;1014.5;;;20.7;49.7
54439;BME280;40347;53.848;27.498;2023-06-14T22:36:39;1014.5;;;20.6;49.7
54439;BME280;40347;53.848;27.498;2023-06-14T22:41:49;1014.5;;;20.6;49.7
54439;BME280;40347;53.848;27.498;2023-06-14T22:46:53;1014.5;;;20.6;50
54439;BME280;40347;53.848;27.498;2023-06-14T22:51:39;1014.5;;;20.5;49.8
54439;BME280;40347;53.848;27.498;2023-06-14T22:56:53;1014.5;;;20.6;49.5
54439;BME280;40347;53.848;27.498;2023-06-14T23:01:53;1014.5;;;20.6;49.5
54439;BME280;40347;53.848;27.498;2023-06-14T23:06:39;1014.5;;;20.6;49.4
54439;BME280;40347;53.848;27.498;2023-06-14T23:11:39;1014.5;;;20.6;49.6
54439;BME280;40347;53.848;27.498;2023-06-14T23:16:39;1014.5;;;20.5;50.1
54439;BME280;40347;53.848;27.498;2023-06-14T23:21:39;1014.5;;;20.4;50.3
54439;BME280;40347;53.848;27.498;2023-06-14T23:26:53;1014.5;;;20.4;50.3
54439;BME280;40347;53.848;27.498;2023-06-14T23:31:39;1014.5;;;20.4;50.3
54439;BME280;40347;53.848;27.498;2023-06-14T23:36:49;1014.5;;;20.4;50
54439;BME280;40347;53.848;27.498;2023-06-14T23:41:39;1014.5;;;20.4;49.7
54439;BME280;40347;53.848;27.498;2023-06-14T23:46:53;1014.5;;;20.4;49.8
54439;BME280;40347;53.848;27.498;2023-06-14T23:51:39;1014.5;;;20.3;49.8
54439;BME280;40347;53.848;27.498;2023-06-14T23:56:45;1014.5;;;20.3;49.8
